Time;durP1;ratioP1;P1;durP2;ratioP2;P2;SDS_P1;SDS_P2;PMS_P1;PMS_P2;Temp;Humidity;BMP_temperature;BMP_pressure;BME280_temperature;BME280_humidity;BME280_pressure;Samples;Min_cycle;Max_cycle;Signal;HPM_P1;HPM_P2
2023/04/22 00:02:05;;;;;;;3.05;1.85;;;;;;;;;;5050900;28;20032;-81
2023/04/22 00:04:30;;;;;;;2.72;1.27;;;;;;;;;;5049896;28;20086;-82
2023/04/22 00:06:56;;;;;;;5.32;1.88;;;;;;;;;;5053080;28;20028;-84
2023/04/22 00:09:22;;;;;;;2.85;2.03;;;;;;;;;;5051820;28;20021;-83
2023/04/22 00:11:48;;;;;;;2.53;1.52;;;;;;;;;;5050482;28;20041;-81
2023/04/22 00:14:13;;;;;;;2.03;1.83;;;;;;;;;;5051410;28;20031;-81
2023/04/22 00:16:39;;;;;;;1.67;1.30;;;;;;;;;;5051233;28;20107;-80
2023/04/22 00:19:04;;;;;;;2.42;1.88;;;;;;;;;;5049685;28;20033;-83
2023/04/22 00:21:31;;;;;;;3.80;1.42;;;;;;;;;;5051006;28;20550;-83
2023/04/22 00:23:57;;;;;;;3.05;2.17;;;;;;;;;;5051816;28;20106;-81
2023/04/22 00:26:23;;;;;;;2.58;1.95;;;;;;;;;;5052793;28;20020;-80
2023/04/22 00:28:48;;;;;;;3.05;1.55;;;;;;;;;;5050223;28;20354;-82
2023/04/22 00:31:14;;;;;;;2.55;1.40;;;;;;;;;;5051885;28;20108;-82
2023/04/22 00:33:39;;;;;;;3.67;2.15;;;;;;;;;;5052466;28;20400;-83
2023/04/22 00:36:05;;;;;;;2.65;1.73;;;;;;;;;;5046679;28;20025;-81
2023/04/22 00:38:31;;;;;;;1.63;1.13;;;;;;;;;;5051691;28;20551;-83
2023/04/22 00:40:56;;;;;;;2.45;1.38;;;;;;;;;;5052853;28;20054;-82
2023/04/22 00:43:22;;;;;;;1.73;1.40;;;;;;;;;;5055041;28;20025;-82
2023/04/22 00:45:49;;;;;;;3.92;1.77;;;;;;;;;;5053767;28;20056;-80
2023/04/22 00:48:14;;;;;;;1.83;1.35;;;;;;;;;;5055714;28;20079;-81
2023/04/22 00:50:40;;;;;;;1.23;0.88;;;;;;;;;;5053524;28;20029;-82
2023/04/22 00:53:05;;;;;;;2.47;1.75;;;;;;;;;;5054027;28;20021;-83
2023/04/22 00:55:31;;;;;;;3.15;1.67;;;;;;;;;;5055527;28;20032;-81
2023/04/22 00:57:59;;;;;;;2.10;1.48;;;;;;;;;;5054673;28;20638;-82
2023/04/22 01:00:26;;;;;;;2.25;1.52;;;;;;;;;;5055206;28;20025;-81
2023/04/22 01:02:56;;;;;;;2.58;1.85;;;;;;;;;;5054939;28;20420;-82
2023/04/22 01:05:22;;;;;;;3.90;2.33;;;;;;;;;;5052512;28;20024;-81
2023/04/22 01:07:48;;;;;;;3.17;1.40;;;;;;;;;;5053830;28;20040;-83
2023/04/22 01:10:27;;;;;;;1.50;1.23;;;;;;;;;;5055567;28;20035;-83
2023/04/22 01:12:59;;;;;;;2.75;2.10;;;;;;;;;;5053132;28;20476;-82
2023/04/22 01:15:24;;;;;;;2.10;1.30;;;;;;;;;;5055814;28;20096;-80
2023/04/22 01:17:52;;;;;;;2.30;1.50;;;;;;;;;;5056484;28;20939;-82
2023/04/22 01:20:18;;;;;;;3.83;2.42;;;;;;;;;;5055572;28;20021;-82
2023/04/22 01:22:45;;;;;;;3.17;1.92;;;;;;;;;;5055611;28;20071;-81
2023/04/22 01:25:11;;;;;;;7.95;3.42;;;;;;;;;;5053109;28;20051;-83
2023/04/22 01:27:38;;;;;;;1.85;1.75;;;;;;;;;;5053947;28;20056;-82
2023/04/22 01:30:07;;;;;;;3.95;2.88;;;;;;;;;;5053513;28;20115;-84
2023/04/22 01:32:33;;;;;;;2.55;1.83;;;;;;;;;;5053264;28;20111;-81
2023/04/22 01:35:02;;;;;;;2.72;1.83;;;;;;;;;;5054300;28;20060;-87
2023/04/22 01:37:29;;;;;;;13.70;2.10;;;;;;;;;;5053076;28;20542;-81
2023/04/22 01:40:04;;;;;;;4.88;2.40;;;;;;;;;;5052391;28;20029;-84
2023/04/22 01:42:30;;;;;;;2.78;2.15;;;;;;;;;;5052004;28;20117;-81
2023/04/22 01:44:55;;;;;;;14.95;1.88;;;;;;;;;;5054205;28;20051;-82
2023/04/22 01:47:21;;;;;;;2.47;1.58;;;;;;;;;;5052560;28;20029;-80
2023/04/22 01:49:46;;;;;;;2.90;1.85;;;;;;;;;;5051916;28;20112;-80
2023/04/22 01:52:12;;;;;;;3.13;1.50;;;;;;;;;;5052796;28;20020;-82
2023/04/22 01:54:38;;;;;;;2.90;1.67;;;;;;;;;;5052048;28;20087;-82
2023/04/22 01:57:09;;;;;;;2.45;1.48;;;;;;;;;;5053374;28;20056;-82
2023/04/22 01:59:35;;;;;;;3.03;1.90;;;;;;;;;;5052292;28;20039;-83
2023/04/22 02:02:00;;;;;;;2.72;1.55;;;;;;;;;;5052230;28;20029;-81
2023/04/22 02:04:26;;;;;;;1.75;1.52;;;;;;;;;;5053352;28;20028;-81
2023/04/22 02:06:51;;;;;;;4.40;2.10;;;;;;;;;;5053979;28;20033;-80
2023/04/22 02:09:16;;;;;;;1.67;1.45;;;;;;;;;;5053872;28;20021;-82
2023/04/22 02:11:42;;;;;;;2.88;1.35;;;;;;;;;;5054277;28;20028;-83
2023/04/22 02:14:07;;;;;;;6.18;2.30;;;;;;;;;;5052107;28;20032;-80
2023/04/22 02:16:33;;;;;;;2.65;1.73;;;;;;;;;;5051828;28;20401;-80
2023/04/22 02:18:59;;;;;;;3.83;2.08;;;;;;;;;;5052231;28;20523;-81
2023/04/22 02:21:27;;;;;;;2.35;1.33;;;;;;;;;;5052078;28;20057;-84
2023/04/22 02:23:52;;;;;;;3.38;2.33;;;;;;;;;;5051782;28;20064;-82
2023/04/22 02:26:18;;;;;;;2.72;1.52;;;;;;;;;;5054360;28;20106;-82
2023/04/22 02:28:43;;;;;;;2.50;1.75;;;;;;;;;;5053273;28;20025;-80
2023/04/22 02:31:08;;;;;;;2.33;1.67;;;;;;;;;;5053828;28;20027;-82
2023/04/22 02:33:35;;;;;;;2.88;1.70;;;;;;;;;;5050846;28;20029;-81
2023/04/22 02:36:00;;;;;;;8.40;3.22;;;;;;;;;;5052953;28;20044;-82
2023/04/22 02:38:26;;;;;;;2.75;2.10;;;;;;;;;;5052928;28;20025;-81
2023/04/22 02:40:51;;;;;;;4.18;2.65;;;;;;;;;;5052242;28;20031;-81
2023/04/22 02:43:16;;;;;;;4.80;2.10;;;;;;;;;;5053656;28;20036;-83
2023/04/22 02:45:42;;;;;;;2.53;2.08;;;;;;;;;;5054652;28;20035;-84
2023/04/22 02:48:07;;;;;;;5.32;2.28;;;;;;;;;;5054797;28;20546;-81
2023/04/22 02:50:33;;;;;;;3.75;2.67;;;;;;;;;;5052384;28;20037;-85
2023/04/22 02:52:58;;;;;;;8.93;3.22;;;;;;;;;;5053145;28;20025;-82
2023/04/22 02:55:24;;;;;;;3.33;2.35;;;;;;;;;;5054321;28;20039;-82
2023/04/22 02:57:49;;;;;;;3.95;2.03;;;;;;;;;;5053537;28;20025;-82
2023/04/22 03:00:15;;;;;;;5.35;2.70;;;;;;;;;;5051821;28;20485;-81
2023/04/22 03:02:40;;;;;;;2.58;1.85;;;;;;;;;;5051282;28;20028;-79
2023/04/22 03:05:06;;;;;;;5.65;2.70;;;;;;;;;;5052845;28;20435;-82
2023/04/22 03:07:31;;;;;;;4.15;2.95;;;;;;;;;;5052290;28;20025;-83
2023/04/22 03:09:57;;;;;;;3.03;2.10;;;;;;;;;;5052353;28;20456;-83
2023/04/22 03:12:23;;;;;;;2.55;2.00;;;;;;;;;;5053739;28;20021;-83
2023/04/22 03:14:49;;;;;;;3.22;2.50;;;;;;;;;;5052745;28;20495;-82
2023/04/22 03:17:14;;;;;;;3.58;2.30;;;;;;;;;;5053685;28;20021;-83
2023/04/22 03:19:40;;;;;;;4.55;2.10;;;;;;;;;;5054595;28;20041;-83
2023/04/22 03:22:05;;;;;;;9.93;1.95;;;;;;;;;;5050991;28;20124;-83
2023/04/22 03:24:30;;;;;;;3.83;2.10;;;;;;;;;;5054054;28;20568;-82
2023/04/22 03:26:56;;;;;;;3.88;2.10;;;;;;;;;;5052890;28;20025;-82
2023/04/22 03:29:21;;;;;;;5.80;2.70;;;;;;;;;;5048971;28;20020;-81
2023/04/22 03:31:47;;;;;;;2.10;1.85;;;;;;;;;;5051023;28;20032;-82
2023/04/22 03:34:12;;;;;;;2.13;1.33;;;;;;;;;;5051652;28;20131;-82
2023/04/22 03:36:38;;;;;;;1.70;1.30;;;;;;;;;;5053309;28;20037;-81
2023/04/22 03:39:04;;;;;;;2.85;2.05;;;;;;;;;;5049511;28;20048;-82
2023/04/22 03:41:29;;;;;;;3.85;2.10;;;;;;;;;;5051366;28;20028;-83
2023/04/22 03:43:54;;;;;;;1.73;1.45;;;;;;;;;;5050444;28;20420;-83
2023/04/22 03:46:20;;;;;;;2.80;1.92;;;;;;;;;;5050018;28;20028;-82
2023/04/22 03:48:45;;;;;;;1.90;1.52;;;;;;;;;;5051238;28;20032;-81
2023/04/22 03:51:11;;;;;;;3.50;2.17;;;;;;;;;;5051235;28;20534;-81
2023/04/22 03:53:36;;;;;;;2.50;1.77;;;;;;;;;;5051777;28;20510;-82
2023/04/22 03:56:02;;;;;;;2.53;2.10;;;;;;;;;;5050657;28;20064;-83
2023/04/22 03:58:27;;;;;;;2.47;1.73;;;;;;;;;;5050869;28;20037;-82
2023/04/22 04:00:53;;;;;;;3.42;2.05;;;;;;;;;;5049606;28;20035;-81
2023/04/22 04:03:18;;;;;;;4.03;1.77;;;;;;;;;;5050496;28;20029;-82
2023/04/22 04:05:44;;;;;;;4.50;2.33;;;;;;;;;;5052685;28;20017;-83
2023/04/22 04:08:10;;;;;;;3.70;2.10;;;;;;;;;;5052850;28;20029;-81
2023/04/22 04:10:36;;;;;;;3.60;2.50;;;;;;;;;;5052403;28;20443;-82
2023/04/22 04:13:01;;;;;;;6.13;3.75;;;;;;;;;;5053856;28;20112;-82
2023/04/22 04:15:26;;;;;;;4.20;2.92;;;;;;;;;;5049423;28;20068;-83
2023/04/22 04:17:52;;;;;;;5.05;2.80;;;;;;;;;;5052672;28;20049;-82
2023/04/22 04:20:17;;;;;;;7.78;3.78;;;;;;;;;;5052879;28;20024;-83
2023/04/22 04:22:43;;;;;;;5.75;3.45;;;;;;;;;;5052141;28;20372;-81
2023/04/22 04:25:09;;;;;;;6.03;3.55;;;;;;;;;;5053006;28;20025;-82
2023/04/22 04:27:35;;;;;;;4.82;3.22;;;;;;;;;;5051111;28;20037;-79
2023/04/22 04:30:03;;;;;;;6.93;3.72;;;;;;;;;;5049420;28;20117;-81
2023/04/22 04:32:28;;;;;;;8.57;4.22;;;;;;;;;;5052004;28;20111;-81
2023/04/22 04:34:54;;;;;;;6.80;4.65;;;;;;;;;;5052819;28;20103;-80
2023/04/22 04:37:21;;;;;;;4.80;3.55;;;;;;;;;;5049388;28;20075;-78
2023/04/22 04:39:47;;;;;;;5.13;3.55;;;;;;;;;;5047277;28;20028;-80
2023/04/22 04:42:13;;;;;;;9.90;5.05;;;;;;;;;;5049637;28;20028;-79
2023/04/22 04:44:38;;;;;;;5.53;3.92;;;;;;;;;;5047367;28;20036;-79
2023/04/22 04:47:05;;;;;;;5.82;4.25;;;;;;;;;;5047796;28;20036;-80
2023/04/22 04:49:31;;;;;;;7.60;5.13;;;;;;;;;;5048460;28;20107;-79
2023/04/22 04:51:57;;;;;;;6.93;4.18;;;;;;;;;;5050361;28;20108;-79
2023/04/22 04:54:22;;;;;;;6.65;3.15;;;;;;;;;;5048779;28;20025;-79
2023/04/22 04:56:47;;;;;;;8.82;4.30;;;;;;;;;;5050181;28;20078;-79
2023/04/22 04:59:13;;;;;;;5.47;3.83;;;;;;;;;;5050003;28;20028;-82
2023/04/22 05:01:39;;;;;;;6.53;4.00;;;;;;;;;;5050367;28;20400;-79
2023/04/22 05:04:04;;;;;;;5.28;3.45;;;;;;;;;;5047765;28;20025;-79
2023/04/22 05:06:31;;;;;;;9.25;4.53;;;;;;;;;;5047400;28;20029;-80
2023/04/22 05:08:57;;;;;;;8.40;4.50;;;;;;;;;;5047724;28;20040;-80
2023/04/22 05:11:22;;;;;;;7.28;3.67;;;;;;;;;;5048612;28;20397;-79
2023/04/22 05:13:48;;;;;;;8.15;4.07;;;;;;;;;;5046951;28;20392;-79
2023/04/22 05:16:13;;;;;;;7.85;4.80;;;;;;;;;;5048498;28;20032;-79
2023/04/22 05:18:39;;;;;;;14.15;4.32;;;;;;;;;;5045877;28;20041;-79
2023/04/22 05:21:05;;;;;;;5.75;3.50;;;;;;;;;;5045873;28;20085;-79
2023/04/22 05:23:30;;;;;;;8.77;4.82;;;;;;;;;;5050300;28;20052;-79
2023/04/22 05:25:57;;;;;;;7.70;3.58;;;;;;;;;;5048360;28;20057;-78
2023/04/22 05:28:23;;;;;;;9.68;4.93;;;;;;;;;;5051557;28;20476;-79
2023/04/22 05:30:48;;;;;;;5.78;3.95;;;;;;;;;;5052080;28;20110;-78
2023/04/22 05:33:14;;;;;;;6.68;4.18;;;;;;;;;;5048424;28;20051;-79
2023/04/22 05:35:39;;;;;;;10.52;3.70;;;;;;;;;;5053561;28;20059;-79
2023/04/22 05:38:04;;;;;;;8.27;4.25;;;;;;;;;;5049026;28;20032;-78
2023/04/22 05:40:30;;;;;;;6.90;3.50;;;;;;;;;;5048145;28;20036;-78
2023/04/22 05:42:56;;;;;;;5.10;3.35;;;;;;;;;;5048666;28;20029;-78
2023/04/22 05:45:21;;;;;;;5.47;3.85;;;;;;;;;;5052229;28;20033;-78
2023/04/22 05:47:47;;;;;;;6.72;4.45;;;;;;;;;;5051502;28;20036;-78
2023/04/22 05:50:13;;;;;;;5.57;3.15;;;;;;;;;;5050543;28;20494;-78
2023/04/22 05:52:39;;;;;;;5.85;3.65;;;;;;;;;;5052949;28;20560;-79
2023/04/22 05:55:05;;;;;;;9.50;4.47;;;;;;;;;;5051421;28;20100;-79
2023/04/22 05:57:30;;;;;;;9.32;5.38;;;;;;;;;;5051362;28;20029;-79
2023/04/22 05:59:59;;;;;;;9.18;4.32;;;;;;;;;;5052268;28;20029;-79
2023/04/22 06:02:24;;;;;;;6.25;3.63;;;;;;;;;;5051684;28;20021;-78
2023/04/22 06:04:50;;;;;;;9.82;4.57;;;;;;;;;;5052101;28;20037;-80
2023/04/22 06:07:15;;;;;;;8.48;4.45;;;;;;;;;;5050965;28;20029;-78
2023/04/22 06:09:41;;;;;;;12.30;5.15;;;;;;;;;;5048537;28;20056;-78
2023/04/22 06:12:06;;;;;;;8.63;3.50;;;;;;;;;;5044670;28;20029;-79
2023/04/22 06:14:32;;;;;;;7.43;4.82;;;;;;;;;;5050839;28;20033;-79
2023/04/22 06:17:01;;;;;;;6.63;4.13;;;;;;;;;;5050953;28;20028;-79
2023/04/22 06:19:26;;;;;;;10.52;4.75;;;;;;;;;;5047985;28;20085;-78
2023/04/22 06:21:54;;;;;;;7.10;4.57;;;;;;;;;;5047516;28;20056;-78
2023/04/22 06:24:29;;;;;;;8.15;4.32;;;;;;;;;;5049399;28;20029;-79
2023/04/22 06:26:56;;;;;;;4.50;3.33;;;;;;;;;;5050528;28;20628;-77
2023/04/22 06:29:22;;;;;;;6.57;4.68;;;;;;;;;;5046979;28;20525;-77
2023/04/22 06:31:48;;;;;;;7.68;3.75;;;;;;;;;;5050710;28;20107;-77
2023/04/22 06:34:13;;;;;;;8.90;5.28;;;;;;;;;;5049325;28;20444;-77
2023/04/22 06:36:39;;;;;;;5.93;4.07;;;;;;;;;;5050349;28;20103;-79
2023/04/22 06:39:04;;;;;;;7.97;3.67;;;;;;;;;;5047005;28;20082;-78
2023/04/22 06:41:31;;;;;;;5.72;3.88;;;;;;;;;;5050711;28;20025;-78
2023/04/22 06:43:57;;;;;;;5.90;4.28;;;;;;;;;;5043551;28;20032;-78
2023/04/22 06:46:22;;;;;;;6.45;3.88;;;;;;;;;;5044812;28;20025;-77
2023/04/22 06:48:48;;;;;;;10.40;6.07;;;;;;;;;;5045277;28;20025;-77
2023/04/22 06:51:13;;;;;;;9.77;3.92;;;;;;;;;;5051186;28;20536;-77
2023/04/22 06:53:38;;;;;;;8.40;4.88;;;;;;;;;;5051556;28;20029;-78
2023/04/22 06:56:05;;;;;;;8.35;4.97;;;;;;;;;;5051506;28;20147;-77
2023/04/22 06:58:30;;;;;;;8.52;4.78;;;;;;;;;;5049691;28;20473;-78
2023/04/22 07:00:55;;;;;;;10.52;5.45;;;;;;;;;;5051481;28;20039;-81
2023/04/22 07:03:21;;;;;;;10.23;5.13;;;;;;;;;;5050404;28;20036;-79
2023/04/22 07:05:47;;;;;;;11.88;5.50;;;;;;;;;;5048794;28;20028;-80
2023/04/22 07:08:13;;;;;;;6.13;3.78;;;;;;;;;;5047013;28;20033;-79
2023/04/22 07:10:38;;;;;;;9.45;4.32;;;;;;;;;;5049481;28;20037;-77
2023/04/22 07:13:03;;;;;;;6.05;3.60;;;;;;;;;;5050814;28;20020;-77
2023/04/22 07:15:29;;;;;;;6.45;3.85;;;;;;;;;;5051464;28;20036;-78
2023/04/22 07:17:55;;;;;;;20.02;4.53;;;;;;;;;;5050134;28;20044;-79
2023/04/22 07:20:20;;;;;;;10.60;4.07;;;;;;;;;;5051266;28;20052;-79
2023/04/22 07:22:45;;;;;;;10.25;5.03;;;;;;;;;;5051426;28;20036;-80
2023/04/22 07:25:11;;;;;;;6.07;4.10;;;;;;;;;;5046508;28;20384;-79
2023/04/22 07:27:37;;;;;;;8.10;4.57;;;;;;;;;;5049796;28;20083;-78
2023/04/22 07:30:03;;;;;;;7.20;4.05;;;;;;;;;;5050947;28;20029;-81
2023/04/22 07:32:28;;;;;;;5.90;3.42;;;;;;;;;;5051053;28;20453;-80
2023/04/22 07:34:54;;;;;;;7.07;4.00;;;;;;;;;;5049738;28;20032;-80
2023/04/22 07:37:20;;;;;;;6.65;3.67;;;;;;;;;;5050803;28;20063;-80
2023/04/22 07:39:46;;;;;;;10.20;5.10;;;;;;;;;;5050106;28;20121;-80
2023/04/22 07:42:11;;;;;;;7.10;5.03;;;;;;;;;;5050472;28;20106;-81
2023/04/22 07:44:37;;;;;;;7.43;4.05;;;;;;;;;;5050892;28;20037;-81
2023/04/22 07:47:15;;;;;;;6.93;4.20;;;;;;;;;;5052034;28;20497;-79
2023/04/22 07:49:42;;;;;;;9.40;3.92;;;;;;;;;;5053366;28;20055;-80
2023/04/22 07:52:07;;;;;;;6.82;3.80;;;;;;;;;;5050293;28;20532;-81
2023/04/22 07:54:33;;;;;;;4.63;3.33;;;;;;;;;;5053298;28;20064;-80
2023/04/22 07:56:58;;;;;;;11.02;4.88;;;;;;;;;;5052568;28;20042;-79
2023/04/22 07:59:24;;;;;;;15.85;4.88;;;;;;;;;;5048416;28;20025;-78
2023/04/22 08:01:49;;;;;;;8.30;4.13;;;;;;;;;;5046394;28;20033;-78
2023/04/22 08:04:16;;;;;;;4.55;3.05;;;;;;;;;;5052051;28;20377;-79
2023/04/22 08:06:41;;;;;;;7.15;4.35;;;;;;;;;;5045207;28;20106;-79
2023/04/22 08:09:07;;;;;;;6.93;3.20;;;;;;;;;;5050149;28;20100;-78
2023/04/22 08:11:33;;;;;;;13.85;4.50;;;;;;;;;;5049186;28;20029;-77
2023/04/22 08:13:58;;;;;;;7.10;4.00;;;;;;;;;;5049315;28;20025;-78
2023/04/22 08:16:23;;;;;;;12.40;3.85;;;;;;;;;;5049071;28;20098;-79
2023/04/22 08:18:50;;;;;;;5.95;3.55;;;;;;;;;;5049324;28;20037;-80
2023/04/22 08:21:16;;;;;;;8.85;4.03;;;;;;;;;;5051794;28;20029;-81
2023/04/22 08:23:44;;;;;;;5.32;3.78;;;;;;;;;;5052223;28;20061;-81
2023/04/22 08:26:13;;;;;;;4.07;2.92;;;;;;;;;;5056686;28;20036;-83
2023/04/22 08:28:39;;;;;;;5.88;3.13;;;;;;;;;;5051364;28;20040;-82
2023/04/22 08:31:05;;;;;;;6.57;2.88;;;;;;;;;;5050531;28;20029;-83
2023/04/22 08:33:30;;;;;;;3.83;2.65;;;;;;;;;;5049271;28;20021;-82
2023/04/22 08:35:56;;;;;;;6.97;3.42;;;;;;;;;;5045513;28;20035;-81
2023/04/22 08:38:21;;;;;;;3.95;2.55;;;;;;;;;;5048621;28;20032;-84
2023/04/22 08:40:47;;;;;;;4.18;2.80;;;;;;;;;;5049078;28;20049;-80
2023/04/22 08:43:13;;;;;;;5.57;2.80;;;;;;;;;;5048462;28;20037;-80
2023/04/22 08:45:39;;;;;;;6.25;3.20;;;;;;;;;;5048972;28;20142;-78
2023/04/22 08:48:08;;;;;;;5.90;2.90;;;;;;;;;;5046767;28;20037;-81
2023/04/22 08:50:37;;;;;;;4.50;2.47;;;;;;;;;;5050243;28;20044;-80
2023/04/22 08:53:03;;;;;;;4.43;2.20;;;;;;;;;;5046798;28;20082;-82
2023/04/22 08:55:29;;;;;;;6.88;3.55;;;;;;;;;;5050029;28;20029;-80
2023/04/22 08:57:54;;;;;;;4.13;2.35;;;;;;;;;;5048965;28;20029;-81
2023/04/22 09:00:20;;;;;;;7.90;2.35;;;;;;;;;;5048657;28;20028;-82
2023/04/22 09:02:47;;;;;;;5.05;2.22;;;;;;;;;;5053891;28;20025;-82
2023/04/22 09:05:13;;;;;;;3.85;2.30;;;;;;;;;;5049670;28;20033;-82
2023/04/22 09:07:39;;;;;;;4.25;2.05;;;;;;;;;;5055555;28;20415;-80
2023/04/22 09:10:07;;;;;;;4.05;2.60;;;;;;;;;;5054156;28;20029;-80
2023/04/22 09:12:32;;;;;;;4.63;2.80;;;;;;;;;;5055618;28;20112;-83
2023/04/22 09:14:58;;;;;;;8.52;2.72;;;;;;;;;;5053771;28;20029;-82
2023/04/22 09:17:32;;;;;;;3.13;2.28;;;;;;;;;;5055829;28;20078;-81
2023/04/22 09:19:59;;;;;;;9.23;2.13;;;;;;;;;;5056180;28;20254;-84
2023/04/22 09:22:36;;;;;;;3.33;1.75;;;;;;;;;;5050916;28;20141;-82
2023/04/22 09:25:06;;;;;;;3.15;1.88;;;;;;;;;;5054952;28;20033;-82
2023/04/22 09:27:34;;;;;;;2.65;2.05;;;;;;;;;;5049993;28;20028;-80
2023/04/22 09:30:00;;;;;;;10.32;2.53;;;;;;;;;;5053314;28;20468;-81
2023/04/22 09:32:25;;;;;;;6.85;2.65;;;;;;;;;;5054784;28;20112;-82
2023/04/22 09:34:53;;;;;;;3.15;2.00;;;;;;;;;;5054271;28;20476;-82
2023/04/22 09:37:23;;;;;;;3.88;1.83;;;;;;;;;;5054533;28;20037;-83
2023/04/22 09:39:49;;;;;;;;;;;;;;;;;;5055385;28;20415;-81
2023/04/22 09:42:15;;;;;;;6.78;1.85;;;;;;;;;;5053875;28;19912;-83
2023/04/22 09:44:41;;;;;;;3.63;2.03;;;;;;;;;;5056653;28;20040;-80
2023/04/22 09:47:09;;;;;;;4.35;2.10;;;;;;;;;;5055934;28;20025;-80
2023/04/22 09:49:37;;;;;;;3.53;2.08;;;;;;;;;;5051992;28;20032;-81
2023/04/22 09:52:03;;;;;;;3.10;2.00;;;;;;;;;;5054905;28;20033;-81
2023/04/22 09:54:29;;;;;;;2.83;2.17;;;;;;;;;;5053632;28;20027;-81
2023/04/22 09:56:57;;;;;;;2.58;1.45;;;;;;;;;;5053297;28;20056;-82
2023/04/22 09:59:28;;;;;;;6.57;2.42;;;;;;;;;;5054513;28;20021;-80
2023/04/22 10:02:03;;;;;;;8.25;1.75;;;;;;;;;;5052734;28;20475;-81
2023/04/22 10:04:29;;;;;;;8.50;2.33;;;;;;;;;;5051051;28;20052;-79
2023/04/22 10:06:55;;;;;;;3.72;1.65;;;;;;;;;;5053606;28;20024;-81
2023/04/22 10:09:23;;;;;;;6.43;1.73;;;;;;;;;;5050879;28;20469;-81
2023/04/22 10:11:51;;;;;;;2.70;1.98;;;;;;;;;;5053168;28;20468;-79
2023/04/22 10:14:17;;;;;;;2.25;1.70;;;;;;;;;;5052071;28;20025;-82
2023/04/22 10:16:45;;;;;;;2.55;1.40;;;;;;;;;;5054137;28;20032;-82
2023/04/22 10:19:15;;;;;;;3.40;1.33;;;;;;;;;;5049251;28;20048;-83
2023/04/22 10:21:43;;;;;;;2.95;1.65;;;;;;;;;;5051362;28;20424;-79
2023/04/22 10:24:15;;;;;;;1.38;1.00;;;;;;;;;;5051138;28;20087;-78
2023/04/22 10:26:45;;;;;;;1.77;1.17;;;;;;;;;;5052166;28;20033;-78
2023/04/22 10:29:16;;;;;;;1.42;0.95;;;;;;;;;;5050623;28;20024;-79
2023/04/22 10:31:43;;;;;;;1.65;1.35;;;;;;;;;;5051433;28;20033;-81
2023/04/22 10:34:11;;;;;;;2.58;1.45;;;;;;;;;;5051412;28;20103;-82
2023/04/22 10:37:07;;;;;;;1.20;0.82;;;;;;;;;;5051576;28;20086;-82
2023/04/22 10:39:33;;;;;;;2.47;1.65;;;;;;;;;;5044189;28;20047;-80
2023/04/22 10:42:01;;;;;;;3.40;1.73;;;;;;;;;;5050458;28;20541;-81
2023/04/22 10:44:29;;;;;;;1.10;0.73;;;;;;;;;;5049636;28;20029;-80
2023/04/22 10:46:56;;;;;;;2.22;1.42;;;;;;;;;;5050378;28;20056;-79
2023/04/22 10:49:23;;;;;;;3.03;1.70;;;;;;;;;;5049841;28;20025;-79
2023/04/22 10:51:59;;;;;;;4.60;1.27;;;;;;;;;;5082910;28;20396;-78
2023/04/22 10:54:27;;;;;;;1.92;1.23;;;;;;;;;;5050469;28;20029;-80
2023/04/22 10:57:03;;;;;;;2.55;1.40;;;;;;;;;;5051819;28;20120;-82
2023/04/22 10:59:30;;;;;;;1.90;1.40;;;;;;;;;;5050797;28;20089;-78
2023/04/22 11:02:02;;;;;;;2.08;1.35;;;;;;;;;;5049914;28;20075;-78
2023/04/22 11:04:28;;;;;;;2.60;1.30;;;;;;;;;;5052255;28;20028;-79
2023/04/22 11:07:25;;;;;;;1.23;0.85;;;;;;;;;;5049910;28;20401;-79
2023/04/22 11:10:06;;;;;;;2.15;1.20;;;;;;;;;;5051543;28;20032;-79
2023/04/22 11:12:34;;;;;;;2.28;1.52;;;;;;;;;;5051451;28;20039;-78
2023/04/22 11:15:14;;;;;;;2.42;1.10;;;;;;;;;;5050404;28;20106;-78
2023/04/22 11:17:49;;;;;;;10.13;1.52;;;;;;;;;;5046460;28;21128;-80
2023/04/22 11:20:18;;;;;;;1.88;1.27;;;;;;;;;;5051532;28;20029;-79
2023/04/22 11:22:46;;;;;;;3.25;1.70;;;;;;;;;;5050180;28;20050;-79
2023/04/22 11:25:13;;;;;;;2.88;1.63;;;;;;;;;;5048704;28;20037;-81
2023/04/22 11:27:39;;;;;;;4.45;1.75;;;;;;;;;;5051463;28;20051;-80
2023/04/22 11:30:11;;;;;;;1.60;1.10;;;;;;;;;;5051057;28;20024;-78
2023/04/22 11:32:41;;;;;;;2.42;1.30;;;;;;;;;;5046367;28;20531;-78
2023/04/22 11:35:09;;;;;;;5.07;1.23;;;;;;;;;;5049531;28;20052;-80
2023/04/22 11:37:43;;;;;;;2.03;1.08;;;;;;;;;;5051861;28;20051;-81
2023/04/22 11:40:13;;;;;;;1.73;0.90;;;;;;;;;;5049898;28;20017;-80
2023/04/22 11:42:39;;;;;;;3.63;0.70;;;;;;;;;;5051823;28;20448;-79
2023/04/22 11:45:06;;;;;;;1.50;0.80;;;;;;;;;;5051162;28;20028;-80
2023/04/22 11:47:32;;;;;;;2.55;0.82;;;;;;;;;;5049881;28;20421;-81
2023/04/22 11:50:00;;;;;;;4.82;1.25;;;;;;;;;;5051328;28;20028;-81
2023/04/22 11:52:44;;;;;;;1.38;0.98;;;;;;;;;;5048150;28;20428;-79
2023/04/22 11:55:18;;;;;;;1.42;0.90;;;;;;;;;;5049529;28;20039;-81
2023/04/22 11:57:45;;;;;;;1.55;0.88;;;;;;;;;;5049327;28;20111;-79
2023/04/22 12:00:13;;;;;;;0.70;0.50;;;;;;;;;;5049598;28;20033;-82
2023/04/22 12:02:40;;;;;;;1.00;0.88;;;;;;;;;;5049793;28;20048;-83
2023/04/22 12:05:09;;;;;;;1.77;1.08;;;;;;;;;;5050394;28;20029;-79
2023/04/22 12:07:35;;;;;;;2.97;1.50;;;;;;;;;;5049882;28;20110;-81
2023/04/22 12:10:02;;;;;;;2.70;1.23;;;;;;;;;;5048986;28;20464;-83
2023/04/22 12:12:27;;;;;;;0.75;0.55;;;;;;;;;;5050403;28;20024;-81
2023/04/22 12:14:53;;;;;;;1.55;1.15;;;;;;;;;;5051056;28;20499;-82
2023/04/22 12:17:23;;;;;;;1.55;0.95;;;;;;;;;;5049755;28;20115;-82
2023/04/22 12:19:55;;;;;;;1.10;0.80;;;;;;;;;;5050149;28;20550;-79
2023/04/22 12:22:28;;;;;;;1.08;0.85;;;;;;;;;;5049206;28;20025;-82
2023/04/22 12:24:57;;;;;;;2.15;1.00;;;;;;;;;;5049190;28;20377;-80
2023/04/22 12:27:22;;;;;;;5.68;0.88;;;;;;;;;;5049398;28;20100;-80
2023/04/22 12:29:55;;;;;;;4.00;1.55;;;;;;;;;;5050385;28;20040;-80
2023/04/22 12:32:22;;;;;;;0.88;0.80;;;;;;;;;;5049100;28;20024;-80
2023/04/22 12:34:48;;;;;;;1.30;1.10;;;;;;;;;;5052584;28;20884;-78
